sensor_id;sensor_type;location;lat;lon;timestamp;temperature;humidity
4759;DHT22;2393;50.560;12.636;2024-02-26T00:00:02;-0.60;99.90
4759;DHT22;2393;50.560;12.636;2024-02-26T00:02:31;-0.60;99.90
4759;DHT22;2393;50.560;12.636;2024-02-26T00:05:05;-0.50;99.90
4759;DHT22;2393;50.560;12.636;2024-02-26T00:07:34;-0.50;99.90
4759;DHT22;2393;50.560;12.636;2024-02-26T00:10:04;-0.50;99.90
4759;DHT22;2393;50.560;12.636;2024-02-26T00:12:32;-0.50;99.90
4759;DHT22;2393;50.560;12.636;2024-02-26T00:15:02;-0.50;99.90
4759;DHT22;2393;50.560;12.636;2024-02-26T00:17:31;-0.60;99.90
4759;DHT22;2393;50.560;12.636;2024-02-26T00:19:59;-0.60;99.90
4759;DHT22;2393;50.560;12.636;2024-02-26T00:22:29;-0.70;99.90
4759;DHT22;2393;50.560;12.636;2024-02-26T00:24:57;-0.70;99.90
4759;DHT22;2393;50.560;12.636;2024-02-26T00:27:26;-0.80;99.90
4759;DHT22;2393;50.560;12.636;2024-02-26T00:29:54;-0.80;99.90
4759;DHT22;2393;50.560;12.636;2024-02-26T00:32:24;-0.90;99.90
4759;DHT22;2393;50.560;12.636;2024-02-26T00:34:52;-0.90;99.90
4759;DHT22;2393;50.560;12.636;2024-02-26T00:37:21;-0.90;99.90
4759;DHT22;2393;50.560;12.636;2024-02-26T00:39:49;-1.00;99.90
4759;DHT22;2393;50.560;12.636;2024-02-26T00:42:17;-1.00;99.90
4759;DHT22;2393;50.560;12.636;2024-02-26T00:44:46;-1.00;99.90
4759;DHT22;2393;50.560;12.636;2024-02-26T00:47:14;-1.00;99.90
4759;DHT22;2393;50.560;12.636;2024-02-26T00:49:44;-1.00;99.90
4759;DHT22;2393;50.560;12.636;2024-02-26T00:52:12;-1.10;99.90
4759;DHT22;2393;50.560;12.636;2024-02-26T00:54:41;-1.10;99.90
4759;DHT22;2393;50.560;12.636;2024-02-26T00:57:09;-1.10;99.90
4759;DHT22;2393;50.560;12.636;2024-02-26T00:59:39;-1.10;99.90
4759;DHT22;2393;50.560;12.636;2024-02-26T01:02:07;-1.10;99.90
4759;DHT22;2393;50.560;12.636;2024-02-26T01:04:36;-1.10;99.90
4759;DHT22;2393;50.560;12.636;2024-02-26T01:07:06;-1.10;99.90
4759;DHT22;2393;50.560;12.636;2024-02-26T01:09:34;-1.10;99.90
4759;DHT22;2393;50.560;12.636;2024-02-26T01:12:03;-1.20;99.90
4759;DHT22;2393;50.560;12.636;2024-02-26T01:14:32;-1.20;99.90
4759;DHT22;2393;50.560;12.636;2024-02-26T01:17:00;-1.20;99.90
4759;DHT22;2393;50.560;12.636;2024-02-26T01:19:29;-1.20;99.90
4759;DHT22;2393;50.560;12.636;2024-02-26T01:21:58;-1.20;99.90
4759;DHT22;2393;50.560;12.636;2024-02-26T01:24:28;-1.20;99.90
4759;DHT22;2393;50.560;12.636;2024-02-26T01:26:57;-1.20;99.90
4759;DHT22;2393;50.560;12.636;2024-02-26T01:29:25;-1.30;99.90
4759;DHT22;2393;50.560;12.636;2024-02-26T01:31:53;-1.30;99.90
4759;DHT22;2393;50.560;12.636;2024-02-26T01:34:22;-1.30;99.90
4759;DHT22;2393;50.560;12.636;2024-02-26T01:36:51;-1.30;99.90
4759;DHT22;2393;50.560;12.636;2024-02-26T01:39:20;-1.30;99.90
4759;DHT22;2393;50.560;12.636;2024-02-26T01:41:51;-1.30;99.90
4759;DHT22;2393;50.560;12.636;2024-02-26T01:44:20;-1.40;99.90
4759;DHT22;2393;50.560;12.636;2024-02-26T01:46:48;-1.40;99.90
4759;DHT22;2393;50.560;12.636;2024-02-26T01:49:17;-1.40;99.90
4759;DHT22;2393;50.560;12.636;2024-02-26T01:51:46;-1.40;99.90
4759;DHT22;2393;50.560;12.636;2024-02-26T01:54:15;-1.40;99.90
4759;DHT22;2393;50.560;12.636;2024-02-26T01:56:44;-1.40;99.90
4759;DHT22;2393;50.560;12.636;2024-02-26T01:59:14;-1.40;99.90
4759;DHT22;2393;50.560;12.636;2024-02-26T02:01:44;-1.40;99.90
4759;DHT22;2393;50.560;12.636;2024-02-26T02:04:16;-1.50;99.90
4759;DHT22;2393;50.560;12.636;2024-02-26T02:06:45;-1.50;99.90
4759;DHT22;2393;50.560;12.636;2024-02-26T02:09:14;-1.50;99.90
4759;DHT22;2393;50.560;12.636;2024-02-26T02:11:43;-1.50;99.90
4759;DHT22;2393;50.560;12.636;2024-02-26T02:14:11;-1.50;99.90
4759;DHT22;2393;50.560;12.636;2024-02-26T02:16:41;-1.50;99.90
4759;DHT22;2393;50.560;12.636;2024-02-26T02:19:09;-1.50;99.90
4759;DHT22;2393;50.560;12.636;2024-02-26T02:21:39;-1.50;99.90
4759;DHT22;2393;50.560;12.636;2024-02-26T02:24:08;-1.50;99.90
4759;DHT22;2393;50.560;12.636;2024-02-26T02:26:36;-1.50;99.90
4759;DHT22;2393;50.560;12.636;2024-02-26T02:29:05;-1.40;99.90
4759;DHT22;2393;50.560;12.636;2024-02-26T02:31:34;-1.40;99.90
4759;DHT22;2393;50.560;12.636;2024-02-26T02:34:03;-1.50;99.90
4759;DHT22;2393;50.560;12.636;2024-02-26T02:36:31;-1.50;99.90
4759;DHT22;2393;50.560;12.636;2024-02-26T02:39:01;-1.40;99.90
4759;DHT22;2393;50.560;12.636;2024-02-26T02:41:30;-1.40;99.90
4759;DHT22;2393;50.560;12.636;2024-02-26T02:43:58;-1.40;99.90
4759;DHT22;2393;50.560;12.636;2024-02-26T02:46:27;-1.40;99.90
4759;DHT22;2393;50.560;12.636;2024-02-26T02:48:55;-1.50;99.90
4759;DHT22;2393;50.560;12.636;2024-02-26T02:51:24;-1.50;99.90
4759;DHT22;2393;50.560;12.636;2024-02-26T02:53:53;-1.50;99.90
4759;DHT22;2393;50.560;12.636;2024-02-26T02:56:23;-1.60;99.90
4759;DHT22;2393;50.560;12.636;2024-02-26T02:58:51;-1.60;99.90
4759;DHT22;2393;50.560;12.636;2024-02-26T03:01:20;-1.60;99.90
4759;DHT22;2393;50.560;12.636;2024-02-26T03:03:48;-1.60;99.90
4759;DHT22;2393;50.560;12.636;2024-02-26T03:06:16;-1.60;99.90
4759;DHT22;2393;50.560;12.636;2024-02-26T03:08:45;-1.60;99.90
4759;DHT22;2393;50.560;12.636;2024-02-26T03:11:14;-1.60;99.90
4759;DHT22;2393;50.560;12.636;2024-02-26T03:13:44;-1.60;99.90
4759;DHT22;2393;50.560;12.636;2024-02-26T03:16:12;-1.60;99.90
4759;DHT22;2393;50.560;12.636;2024-02-26T03:18:41;-1.70;99.90
4759;DHT22;2393;50.560;12.636;2024-02-26T03:21:10;-1.70;99.90
4759;DHT22;2393;50.560;12.636;2024-02-26T03:23:38;-1.80;99.90
4759;DHT22;2393;50.560;12.636;2024-02-26T03:26:07;-1.80;99.90
4759;DHT22;2393;50.560;12.636;2024-02-26T03:28:35;-1.80;99.90
4759;DHT22;2393;50.560;12.636;2024-02-26T03:31:05;-1.90;99.90
4759;DHT22;2393;50.560;12.636;2024-02-26T03:33:34;-1.90;99.90
4759;DHT22;2393;50.560;12.636;2024-02-26T03:36:03;-2.00;99.90
4759;DHT22;2393;50.560;12.636;2024-02-26T03:38:32;-2.00;99.90
4759;DHT22;2393;50.560;12.636;2024-02-26T03:41:00;-2.00;99.90
4759;DHT22;2393;50.560;12.636;2024-02-26T03:43:29;-2.00;99.90
4759;DHT22;2393;50.560;12.636;2024-02-26T03:45:57;-2.00;99.90
4759;DHT22;2393;50.560;12.636;2024-02-26T03:48:26;-2.00;99.90
4759;DHT22;2393;50.560;12.636;2024-02-26T03:50:55;-2.00;99.90
4759;DHT22;2393;50.560;12.636;2024-02-26T03:53:23;-2.00;99.90
4759;DHT22;2393;50.560;12.636;2024-02-26T03:55:52;-1.90;99.90
4759;DHT22;2393;50.560;12.636;2024-02-26T03:58:20;-2.00;99.90
4759;DHT22;2393;50.560;12.636;2024-02-26T04:00:58;-1.90;99.90
4759;DHT22;2393;50.560;12.636;2024-02-26T04:03:28;-1.90;99.90
4759;DHT22;2393;50.560;12.636;2024-02-26T04:05:57;-1.90;99.90
4759;DHT22;2393;50.560;12.636;2024-02-26T04:08:25;-1.90;99.90
4759;DHT22;2393;50.560;12.636;2024-02-26T04:10:54;-1.90;99.90
4759;DHT22;2393;50.560;12.636;2024-02-26T04:13:22;-1.90;99.90
4759;DHT22;2393;50.560;12.636;2024-02-26T04:15:51;-1.90;99.90
4759;DHT22;2393;50.560;12.636;2024-02-26T04:18:19;-1.90;99.90
4759;DHT22;2393;50.560;12.636;2024-02-26T04:20:49;-1.90;99.90
4759;DHT22;2393;50.560;12.636;2024-02-26T04:23:18;-1.90;99.90
4759;DHT22;2393;50.560;12.636;2024-02-26T04:25:47;-1.90;99.90
4759;DHT22;2393;50.560;12.636;2024-02-26T04:28:15;-1.90;99.90
4759;DHT22;2393;50.560;12.636;2024-02-26T04:30:44;-1.90;99.90
4759;DHT22;2393;50.560;12.636;2024-02-26T04:33:12;-1.90;99.90
4759;DHT22;2393;50.560;12.636;2024-02-26T04:35:41;-2.00;99.90
4759;DHT22;2393;50.560;12.636;2024-02-26T04:38:10;-2.00;99.90
4759;DHT22;2393;50.560;12.636;2024-02-26T04:40:39;-2.00;99.90
4759;DHT22;2393;50.560;12.636;2024-02-26T04:43:07;-2.00;99.90
4759;DHT22;2393;50.560;12.636;2024-02-26T04:45:35;-2.00;99.90
4759;DHT22;2393;50.560;12.636;2024-02-26T04:48:04;-2.00;99.90
4759;DHT22;2393;50.560;12.636;2024-02-26T04:50:33;-2.00;99.90
4759;DHT22;2393;50.560;12.636;2024-02-26T04:53:02;-2.00;99.90
4759;DHT22;2393;50.560;12.636;2024-02-26T04:55:31;-2.00;99.90
4759;DHT22;2393;50.560;12.636;2024-02-26T04:58:00;-2.00;99.90
4759;DHT22;2393;50.560;12.636;2024-02-26T05:00:28;-1.90;99.90
4759;DHT22;2393;50.560;12.636;2024-02-26T05:02:56;-1.90;99.90
4759;DHT22;2393;50.560;12.636;2024-02-26T05:05:25;-1.90;99.90
4759;DHT22;2393;50.560;12.636;2024-02-26T05:07:54;-1.90;99.90
4759;DHT22;2393;50.560;12.636;2024-02-26T05:10:22;-1.90;99.90
4759;DHT22;2393;50.560;12.636;2024-02-26T05:12:52;-1.90;99.90
4759;DHT22;2393;50.560;12.636;2024-02-26T05:15:21;-1.80;99.90
4759;DHT22;2393;50.560;12.636;2024-02-26T05:17:49;-1.80;99.90
4759;DHT22;2393;50.560;12.636;2024-02-26T05:20:17;-1.80;99.90
4759;DHT22;2393;50.560;12.636;2024-02-26T05:22:46;-1.80;99.90
4759;DHT22;2393;50.560;12.636;2024-02-26T05:25:15;-1.80;99.90
4759;DHT22;2393;50.560;12.636;2024-02-26T05:27:44;-1.80;99.90
4759;DHT22;2393;50.560;12.636;2024-02-26T05:30:14;-1.80;99.90
4759;DHT22;2393;50.560;12.636;2024-02-26T05:32:43;-1.80;99.90
4759;DHT22;2393;50.560;12.636;2024-02-26T05:35:12;-1.80;99.90
4759;DHT22;2393;50.560;12.636;2024-02-26T05:37:42;-1.80;99.90
4759;DHT22;2393;50.560;12.636;2024-02-26T05:40:11;-1.80;99.90
4759;DHT22;2393;50.560;12.636;2024-02-26T05:42:40;-1.70;99.90
4759;DHT22;2393;50.560;12.636;2024-02-26T05:45:08;-1.70;99.90
4759;DHT22;2393;50.560;12.636;2024-02-26T05:47:39;-1.70;99.90
4759;DHT22;2393;50.560;12.636;2024-02-26T05:50:10;-1.70;99.90
4759;DHT22;2393;50.560;12.636;2024-02-26T05:52:40;-1.70;99.90
4759;DHT22;2393;50.560;12.636;2024-02-26T05:55:09;-1.70;99.90
4759;DHT22;2393;50.560;12.636;2024-02-26T05:57:37;-1.80;99.90
4759;DHT22;2393;50.560;12.636;2024-02-26T06:00:06;-1.80;99.90
4759;DHT22;2393;50.560;12.636;2024-02-26T06:02:40;-1.70;99.90
4759;DHT22;2393;50.560;12.636;2024-02-26T06:05:09;-1.70;99.90
4759;DHT22;2393;50.560;12.636;2024-02-26T06:07:38;-1.70;99.90
4759;DHT22;2393;50.560;12.636;2024-02-26T06:10:07;-1.70;99.90
4759;DHT22;2393;50.560;12.636;2024-02-26T06:12:36;-1.70;99.90
4759;DHT22;2393;50.560;12.636;2024-02-26T06:15:05;-1.80;99.90
4759;DHT22;2393;50.560;12.636;2024-02-26T06:17:34;-1.80;99.90
4759;DHT22;2393;50.560;12.636;2024-02-26T06:20:05;-1.70;99.90
4759;DHT22;2393;50.560;12.636;2024-02-26T06:22:40;-1.80;99.90
4759;DHT22;2393;50.560;12.636;2024-02-26T06:25:10;-1.70;99.90
4759;DHT22;2393;50.560;12.636;2024-02-26T06:27:39;-1.70;99.90
4759;DHT22;2393;50.560;12.636;2024-02-26T06:30:09;-1.60;99.90
4759;DHT22;2393;50.560;12.636;2024-02-26T06:32:38;-1.60;99.90
4759;DHT22;2393;50.560;12.636;2024-02-26T06:35:08;-1.50;99.90
4759;DHT22;2393;50.560;12.636;2024-02-26T06:37:39;-1.50;99.90
4759;DHT22;2393;50.560;12.636;2024-02-26T06:40:08;-1.30;99.90
4759;DHT22;2393;50.560;12.636;2024-02-26T06:42:36;-1.10;99.90
4759;DHT22;2393;50.560;12.636;2024-02-26T06:45:05;-0.60;99.90
4759;DHT22;2393;50.560;12.636;2024-02-26T06:47:35;0.00;99.90
4759;DHT22;2393;50.560;12.636;2024-02-26T06:50:04;0.80;99.90
4759;DHT22;2393;50.560;12.636;2024-02-26T06:52:34;2.10;99.90
4759;DHT22;2393;50.560;12.636;2024-02-26T06:55:03;3.70;99.90
4759;DHT22;2393;50.560;12.636;2024-02-26T06:57:32;5.20;99.90
4759;DHT22;2393;50.560;12.636;2024-02-26T07:00:00;6.10;99.90
4759;DHT22;2393;50.560;12.636;2024-02-26T07:02:31;6.20;99.90
4759;DHT22;2393;50.560;12.636;2024-02-26T07:05:01;6.00;99.90
4759;DHT22;2393;50.560;12.636;2024-02-26T07:07:33;5.70;99.90
4759;DHT22;2393;50.560;12.636;2024-02-26T07:10:02;5.40;99.90
4759;DHT22;2393;50.560;12.636;2024-02-26T07:12:32;5.10;99.90
4759;DHT22;2393;50.560;12.636;2024-02-26T07:15:01;4.80;99.90
4759;DHT22;2393;50.560;12.636;2024-02-26T07:17:30;4.70;99.90
4759;DHT22;2393;50.560;12.636;2024-02-26T07:19:58;4.50;99.90
4759;DHT22;2393;50.560;12.636;2024-02-26T07:22:26;4.40;99.90
4759;DHT22;2393;50.560;12.636;2024-02-26T07:24:56;4.30;99.90
4759;DHT22;2393;50.560;12.636;2024-02-26T07:27:25;4.30;99.90
4759;DHT22;2393;50.560;12.636;2024-02-26T07:29:53;4.40;99.90
4759;DHT22;2393;50.560;12.636;2024-02-26T07:32:21;4.40;99.90
4759;DHT22;2393;50.560;12.636;2024-02-26T07:34:50;4.80;99.90
4759;DHT22;2393;50.560;12.636;2024-02-26T07:37:19;5.20;99.90
4759;DHT22;2393;50.560;12.636;2024-02-26T07:39:47;5.50;99.90
4759;DHT22;2393;50.560;12.636;2024-02-26T07:42:17;5.90;99.90
4759;DHT22;2393;50.560;12.636;2024-02-26T07:44:48;6.20;99.90
4759;DHT22;2393;50.560;12.636;2024-02-26T07:47:18;6.40;99.90
4759;DHT22;2393;50.560;12.636;2024-02-26T07:49:46;6.90;99.90
4759;DHT22;2393;50.560;12.636;2024-02-26T07:52:15;7.60;99.90
4759;DHT22;2393;50.560;12.636;2024-02-26T07:54:43;8.30;99.90
4759;DHT22;2393;50.560;12.636;2024-02-26T07:57:11;8.80;99.90
4759;DHT22;2393;50.560;12.636;2024-02-26T07:59:45;9.30;99.90
4759;DHT22;2393;50.560;12.636;2024-02-26T08:02:17;9.70;99.90
4759;DHT22;2393;50.560;12.636;2024-02-26T08:04:45;10.00;99.90
4759;DHT22;2393;50.560;12.636;2024-02-26T08:07:19;10.40;99.90
4759;DHT22;2393;50.560;12.636;2024-02-26T08:09:48;10.80;99.90
4759;DHT22;2393;50.560;12.636;2024-02-26T08:12:16;11.10;99.90
4759;DHT22;2393;50.560;12.636;2024-02-26T08:14:47;11.30;99.90
4759;DHT22;2393;50.560;12.636;2024-02-26T08:17:15;11.50;99.90
4759;DHT22;2393;50.560;12.636;2024-02-26T08:19:45;11.80;99.90
4759;DHT22;2393;50.560;12.636;2024-02-26T08:22:13;12.20;99.90
4759;DHT22;2393;50.560;12.636;2024-02-26T08:24:43;12.60;99.90
4759;DHT22;2393;50.560;12.636;2024-02-26T08:27:11;12.90;99.90
4759;DHT22;2393;50.560;12.636;2024-02-26T08:29:40;13.10;99.90
4759;DHT22;2393;50.560;12.636;2024-02-26T08:32:21;13.30;99.90
4759;DHT22;2393;50.560;12.636;2024-02-26T08:34:57;13.40;99.90
4759;DHT22;2393;50.560;12.636;2024-02-26T08:37:29;13.50;99.90
4759;DHT22;2393;50.560;12.636;2024-02-26T08:39:57;13.30;99.90
4759;DHT22;2393;50.560;12.636;2024-02-26T08:42:32;13.40;99.90
4759;DHT22;2393;50.560;12.636;2024-02-26T08:45:01;13.30;99.90
4759;DHT22;2393;50.560;12.636;2024-02-26T08:47:44;13.00;99.90
4759;DHT22;2393;50.560;12.636;2024-02-26T08:50:14;13.10;99.90
4759;DHT22;2393;50.560;12.636;2024-02-26T08:52:42;13.10;99.90
4759;DHT22;2393;50.560;12.636;2024-02-26T08:55:18;13.20;99.90
4759;DHT22;2393;50.560;12.636;2024-02-26T08:57:47;13.20;99.90
4759;DHT22;2393;50.560;12.636;2024-02-26T09:00:16;13.40;99.90
4759;DHT22;2393;50.560;12.636;2024-02-26T09:02:49;13.70;99.90
4759;DHT22;2393;50.560;12.636;2024-02-26T09:05:18;13.90;99.90
4759;DHT22;2393;50.560;12.636;2024-02-26T09:07:47;13.80;99.90
4759;DHT22;2393;50.560;12.636;2024-02-26T09:10:15;13.90;99.90
4759;DHT22;2393;50.560;12.636;2024-02-26T09:12:44;14.10;99.90
4759;DHT22;2393;50.560;12.636;2024-02-26T09:15:12;14.20;99.90
4759;DHT22;2393;50.560;12.636;2024-02-26T09:17:41;14.10;99.90
4759;DHT22;2393;50.560;12.636;2024-02-26T09:20:11;13.80;99.90
4759;DHT22;2393;50.560;12.636;2024-02-26T09:22:41;13.60;99.90
4759;DHT22;2393;50.560;12.636;2024-02-26T09:25:10;13.50;99.90
4759;DHT22;2393;50.560;12.636;2024-02-26T09:27:39;13.40;99.90
4759;DHT22;2393;50.560;12.636;2024-02-26T09:30:10;13.40;99.90
4759;DHT22;2393;50.560;12.636;2024-02-26T09:32:39;13.60;99.90
4759;DHT22;2393;50.560;12.636;2024-02-26T09:35:12;14.00;99.90
4759;DHT22;2393;50.560;12.636;2024-02-26T09:37:41;14.40;99.90
4759;DHT22;2393;50.560;12.636;2024-02-26T09:40:12;14.70;99.90
4759;DHT22;2393;50.560;12.636;2024-02-26T09:42:44;14.90;99.90
4759;DHT22;2393;50.560;12.636;2024-02-26T09:45:18;15.20;99.90
4759;DHT22;2393;50.560;12.636;2024-02-26T09:47:56;15.50;99.90
4759;DHT22;2393;50.560;12.636;2024-02-26T09:50:26;15.90;99.90
4759;DHT22;2393;50.560;12.636;2024-02-26T09:52:55;16.20;99.90
4759;DHT22;2393;50.560;12.636;2024-02-26T09:55:26;16.60;99.90
4759;DHT22;2393;50.560;12.636;2024-02-26T09:58:28;16.80;99.90
4759;DHT22;2393;50.560;12.636;2024-02-26T10:00:57;17.10;99.90
4759;DHT22;2393;50.560;12.636;2024-02-26T10:03:31;17.10;99.90
4759;DHT22;2393;50.560;12.636;2024-02-26T10:06:06;17.10;99.90
4759;DHT22;2393;50.560;12.636;2024-02-26T10:08:37;16.70;99.60
4759;DHT22;2393;50.560;12.636;2024-02-26T10:11:07;16.10;99.90
4759;DHT22;2393;50.560;12.636;2024-02-26T10:13:37;15.80;99.90
4759;DHT22;2393;50.560;12.636;2024-02-26T10:16:07;15.50;99.90
4759;DHT22;2393;50.560;12.636;2024-02-26T10:18:47;15.40;99.90
4759;DHT22;2393;50.560;12.636;2024-02-26T10:21:20;15.40;99.90
4759;DHT22;2393;50.560;12.636;2024-02-26T10:23:49;15.50;99.90
4759;DHT22;2393;50.560;12.636;2024-02-26T10:26:19;15.70;99.90
4759;DHT22;2393;50.560;12.636;2024-02-26T10:28:47;15.80;99.90
4759;DHT22;2393;50.560;12.636;2024-02-26T10:31:21;15.80;99.90
4759;DHT22;2393;50.560;12.636;2024-02-26T10:33:49;15.40;99.90
4759;DHT22;2393;50.560;12.636;2024-02-26T10:36:20;15.00;99.90
4759;DHT22;2393;50.560;12.636;2024-02-26T10:38:50;14.80;99.90
4759;DHT22;2393;50.560;12.636;2024-02-26T10:41:22;14.70;99.90
4759;DHT22;2393;50.560;12.636;2024-02-26T10:43:51;14.60;99.90
4759;DHT22;2393;50.560;12.636;2024-02-26T10:46:20;14.80;99.90
4759;DHT22;2393;50.560;12.636;2024-02-26T10:48:50;14.90;99.90
4759;DHT22;2393;50.560;12.636;2024-02-26T10:51:24;14.90;99.90
4759;DHT22;2393;50.560;12.636;2024-02-26T10:53:55;14.90;99.90
4759;DHT22;2393;50.560;12.636;2024-02-26T10:56:29;14.80;99.90
4759;DHT22;2393;50.560;12.636;2024-02-26T10:58:57;14.70;99.90
4759;DHT22;2393;50.560;12.636;2024-02-26T11:01:27;14.70;99.90
4759;DHT22;2393;50.560;12.636;2024-02-26T11:03:58;14.80;99.90
4759;DHT22;2393;50.560;12.636;2024-02-26T11:06:31;15.00;99.90
4759;DHT22;2393;50.560;12.636;2024-02-26T11:09:02;15.20;99.90
4759;DHT22;2393;50.560;12.636;2024-02-26T11:11:32;15.10;99.90
4759;DHT22;2393;50.560;12.636;2024-02-26T11:14:01;14.80;99.90
4759;DHT22;2393;50.560;12.636;2024-02-26T11:16:33;14.50;99.90
4759;DHT22;2393;50.560;12.636;2024-02-26T11:19:06;14.00;99.90
4759;DHT22;2393;50.560;12.636;2024-02-26T11:21:40;13.80;99.90
4759;DHT22;2393;50.560;12.636;2024-02-26T11:24:14;13.80;99.90
4759;DHT22;2393;50.560;12.636;2024-02-26T11:26:48;13.60;99.90
4759;DHT22;2393;50.560;12.636;2024-02-26T11:29:29;13.30;99.90
4759;DHT22;2393;50.560;12.636;2024-02-26T11:31:59;13.00;99.90
4759;DHT22;2393;50.560;12.636;2024-02-26T11:34:28;12.90;99.90
4759;DHT22;2393;50.560;12.636;2024-02-26T11:37:09;12.80;99.90
4759;DHT22;2393;50.560;12.636;2024-02-26T11:39:39;12.80;99.90
4759;DHT22;2393;50.560;12.636;2024-02-26T11:42:09;12.70;99.90
4759;DHT22;2393;50.560;12.636;2024-02-26T11:44:38;12.60;99.90
4759;DHT22;2393;50.560;12.636;2024-02-26T11:47:10;12.50;99.90
4759;DHT22;2393;50.560;12.636;2024-02-26T11:49:39;12.50;99.90
4759;DHT22;2393;50.560;12.636;2024-02-26T11:52:14;12.50;99.90
4759;DHT22;2393;50.560;12.636;2024-02-26T11:54:47;12.50;99.90
4759;DHT22;2393;50.560;12.636;2024-02-26T12:00:39;12.70;99.90
4759;DHT22;2393;50.560;12.636;2024-02-26T12:03:08;12.50;99.90
4759;DHT22;2393;50.560;12.636;2024-02-26T12:05:43;12.50;99.90
4759;DHT22;2393;50.560;12.636;2024-02-26T12:08:13;12.60;99.90
4759;DHT22;2393;50.560;12.636;2024-02-26T12:10:44;12.60;99.90
4759;DHT22;2393;50.560;12.636;2024-02-26T12:13:14;12.70;99.90
4759;DHT22;2393;50.560;12.636;2024-02-26T12:15:55;12.60;99.90
4759;DHT22;2393;50.560;12.636;2024-02-26T12:18:24;12.50;99.90
4759;DHT22;2393;50.560;12.636;2024-02-26T12:20:58;12.40;99.90
4759;DHT22;2393;50.560;12.636;2024-02-26T12:23:29;12.20;99.90
4759;DHT22;2393;50.560;12.636;2024-02-26T12:25:58;12.20;99.90
4759;DHT22;2393;50.560;12.636;2024-02-26T12:28:28;12.20;99.90
4759;DHT22;2393;50.560;12.636;2024-02-26T12:30:57;12.20;99.90
4759;DHT22;2393;50.560;12.636;2024-02-26T12:33:27;12.00;99.90
4759;DHT22;2393;50.560;12.636;2024-02-26T12:35:56;12.00;99.90
4759;DHT22;2393;50.560;12.636;2024-02-26T12:38:26;12.10;99.90
4759;DHT22;2393;50.560;12.636;2024-02-26T12:40:56;12.00;99.90
4759;DHT22;2393;50.560;12.636;2024-02-26T12:43:26;12.10;99.90
4759;DHT22;2393;50.560;12.636;2024-02-26T12:45:54;12.10;99.90
4759;DHT22;2393;50.560;12.636;2024-02-26T12:48:23;12.00;99.90
4759;DHT22;2393;50.560;12.636;2024-02-26T12:50:51;12.20;99.90
4759;DHT22;2393;50.560;12.636;2024-02-26T12:53:20;12.30;99.90
4759;DHT22;2393;50.560;12.636;2024-02-26T12:55:48;12.40;99.90
4759;DHT22;2393;50.560;12.636;2024-02-26T12:58:18;12.30;99.90
4759;DHT22;2393;50.560;12.636;2024-02-26T13:00:51;12.30;99.90
4759;DHT22;2393;50.560;12.636;2024-02-26T13:03:21;12.40;99.90
4759;DHT22;2393;50.560;12.636;2024-02-26T13:05:50;12.50;99.90
4759;DHT22;2393;50.560;12.636;2024-02-26T13:08:19;12.50;99.90
4759;DHT22;2393;50.560;12.636;2024-02-26T13:10:48;12.50;99.90
4759;DHT22;2393;50.560;12.636;2024-02-26T13:13:19;12.50;99.90
4759;DHT22;2393;50.560;12.636;2024-02-26T13:15:48;12.50;99.90
4759;DHT22;2393;50.560;12.636;2024-02-26T13:18:16;12.50;99.90
4759;DHT22;2393;50.560;12.636;2024-02-26T13:20:45;12.40;99.90
4759;DHT22;2393;50.560;12.636;2024-02-26T13:23:13;12.20;99.90
4759;DHT22;2393;50.560;12.636;2024-02-26T13:25:42;12.10;99.90
4759;DHT22;2393;50.560;12.636;2024-02-26T13:28:15;12.10;99.90
4759;DHT22;2393;50.560;12.636;2024-02-26T13:30:51;12.20;99.90
4759;DHT22;2393;50.560;12.636;2024-02-26T13:33:21;12.30;99.90
4759;DHT22;2393;50.560;12.636;2024-02-26T13:35:53;12.30;99.90
4759;DHT22;2393;50.560;12.636;2024-02-26T13:38:23;12.30;99.90
4759;DHT22;2393;50.560;12.636;2024-02-26T13:40:51;12.40;99.90
4759;DHT22;2393;50.560;12.636;2024-02-26T13:43:20;12.30;99.90
4759;DHT22;2393;50.560;12.636;2024-02-26T13:45:49;12.00;99.90
4759;DHT22;2393;50.560;12.636;2024-02-26T13:48:19;11.80;99.90
4759;DHT22;2393;50.560;12.636;2024-02-26T13:50:48;11.80;99.90
4759;DHT22;2393;50.560;12.636;2024-02-26T13:53:16;11.70;99.90
4759;DHT22;2393;50.560;12.636;2024-02-26T13:55:45;11.80;99.90
4759;DHT22;2393;50.560;12.636;2024-02-26T13:58:14;11.80;99.90
4759;DHT22;2393;50.560;12.636;2024-02-26T14:00:42;12.00;99.90
4759;DHT22;2393;50.560;12.636;2024-02-26T14:03:11;12.00;99.90
4759;DHT22;2393;50.560;12.636;2024-02-26T14:05:41;12.00;99.90
4759;DHT22;2393;50.560;12.636;2024-02-26T14:08:14;12.00;99.90
4759;DHT22;2393;50.560;12.636;2024-02-26T14:10:43;11.70;99.90
4759;DHT22;2393;50.560;12.636;2024-02-26T14:13:13;11.50;99.90
4759;DHT22;2393;50.560;12.636;2024-02-26T14:15:41;11.40;99.90
4759;DHT22;2393;50.560;12.636;2024-02-26T14:18:10;11.30;99.90
4759;DHT22;2393;50.560;12.636;2024-02-26T14:20:40;11.40;99.90
4759;DHT22;2393;50.560;12.636;2024-02-26T14:23:09;11.40;99.90
4759;DHT22;2393;50.560;12.636;2024-02-26T14:25:37;11.50;99.90
4759;DHT22;2393;50.560;12.636;2024-02-26T14:28:08;11.40;99.90
4759;DHT22;2393;50.560;12.636;2024-02-26T14:30:47;11.30;99.90
4759;DHT22;2393;50.560;12.636;2024-02-26T14:33:16;11.50;99.90
4759;DHT22;2393;50.560;12.636;2024-02-26T14:35:46;11.50;99.90
4759;DHT22;2393;50.560;12.636;2024-02-26T14:38:14;11.60;99.90
4759;DHT22;2393;50.560;12.636;2024-02-26T14:40:43;11.80;99.90
4759;DHT22;2393;50.560;12.636;2024-02-26T14:43:11;11.70;99.90
4759;DHT22;2393;50.560;12.636;2024-02-26T14:45:40;11.80;99.90
4759;DHT22;2393;50.560;12.636;2024-02-26T14:48:12;11.90;99.90
4759;DHT22;2393;50.560;12.636;2024-02-26T14:50:41;12.00;99.90
4759;DHT22;2393;50.560;12.636;2024-02-26T14:53:14;12.20;99.90
4759;DHT22;2393;50.560;12.636;2024-02-26T14:55:44;12.20;99.90
4759;DHT22;2393;50.560;12.636;2024-02-26T14:58:14;12.30;99.90
4759;DHT22;2393;50.560;12.636;2024-02-26T15:00:42;12.20;99.90
4759;DHT22;2393;50.560;12.636;2024-02-26T15:03:11;12.20;99.90
4759;DHT22;2393;50.560;12.636;2024-02-26T15:05:39;12.10;99.90
4759;DHT22;2393;50.560;12.636;2024-02-26T15:08:08;12.10;99.90
4759;DHT22;2393;50.560;12.636;2024-02-26T15:10:44;11.90;99.90
4759;DHT22;2393;50.560;12.636;2024-02-26T15:13:18;11.80;99.90
4759;DHT22;2393;50.560;12.636;2024-02-26T15:15:48;11.40;99.90
4759;DHT22;2393;50.560;12.636;2024-02-26T15:18:16;11.20;99.90
4759;DHT22;2393;50.560;12.636;2024-02-26T15:20:45;11.10;99.90
4759;DHT22;2393;50.560;12.636;2024-02-26T15:23:14;10.90;99.90
4759;DHT22;2393;50.560;12.636;2024-02-26T15:25:46;10.90;99.90
4759;DHT22;2393;50.560;12.636;2024-02-26T15:28:14;10.50;99.90
4759;DHT22;2393;50.560;12.636;2024-02-26T15:30:43;10.30;99.90
4759;DHT22;2393;50.560;12.636;2024-02-26T15:33:11;10.20;99.90
4759;DHT22;2393;50.560;12.636;2024-02-26T15:35:40;9.90;99.90
4759;DHT22;2393;50.560;12.636;2024-02-26T15:38:12;9.80;99.90
4759;DHT22;2393;50.560;12.636;2024-02-26T15:40:41;9.50;99.90
4759;DHT22;2393;50.560;12.636;2024-02-26T15:43:10;9.40;99.90
4759;DHT22;2393;50.560;12.636;2024-02-26T15:45:41;9.30;99.90
4759;DHT22;2393;50.560;12.636;2024-02-26T15:48:10;9.40;99.90
4759;DHT22;2393;50.560;12.636;2024-02-26T15:50:39;9.30;99.90
4759;DHT22;2393;50.560;12.636;2024-02-26T15:53:13;9.10;99.90
4759;DHT22;2393;50.560;12.636;2024-02-26T15:55:41;9.00;99.90
4759;DHT22;2393;50.560;12.636;2024-02-26T15:58:11;8.90;99.90
4759;DHT22;2393;50.560;12.636;2024-02-26T16:00:39;8.90;99.90
4759;DHT22;2393;50.560;12.636;2024-02-26T16:03:09;8.80;99.90
4759;DHT22;2393;50.560;12.636;2024-02-26T16:05:38;8.80;99.90